Terminal Aerodrome Forecast
Issued by NWS

Current Version | Previous Version | Graphics & Text | Print | Product List | Glossary On
Versions: 1 2 3 4 5 6 7 8 9 10 11 12 13 14 15 16 17 18 19 20 21
661
FTUS41 KILN 261751
TAFLUK
TAF
KLUK 261751Z 2618/2718 VRB03KT P6SM FEW250
     FM271300 VRB03KT P6SM VCSH BKN060
     FM271700 21005KT P6SM SHRA VCTS OVC045CB=

USA.gov is the U.S. government's official web portal to all federal, state and local government web resources and services.